createdAt,value
2023-03-04T00:00:03.605Z,2.35
2023-03-04T00:02:37.690Z,1.95
2023-03-04T00:05:05.658Z,2.35
2023-03-04T00:07:33.094Z,2.10
2023-03-04T00:10:00.446Z,2.20
2023-03-04T00:12:27.779Z,2.30
2023-03-04T00:14:55.196Z,2.95
2023-03-04T00:17:24.039Z,1.50
2023-03-04T00:19:51.382Z,2.15
2023-03-04T00:22:18.682Z,2.13
2023-03-04T00:24:45.965Z,2.63
2023-03-04T00:27:14.245Z,2.08
2023-03-04T00:29:41.632Z,2.80
2023-03-04T00:32:09.063Z,2.17
2023-03-04T00:34:37.271Z,2.80
2023-03-04T00:37:04.534Z,2.55
2023-03-04T00:39:31.958Z,4.22
2023-03-04T00:41:59.512Z,2.30
2023-03-04T00:44:26.908Z,2.33
2023-03-04T00:46:54.160Z,2.88
2023-03-04T00:49:22.239Z,2.78
2023-03-04T00:51:49.690Z,3.42
2023-03-04T00:54:17.060Z,2.85
2023-03-04T00:56:44.490Z,3.47
2023-03-04T00:59:11.970Z,3.22
2023-03-04T01:01:39.558Z,2.65
2023-03-04T01:04:07.020Z,2.60
2023-03-04T01:06:34.504Z,3.10
2023-03-04T01:09:02.134Z,2.15
2023-03-04T01:11:31.213Z,2.53
2023-03-04T01:14:00.302Z,3.13
2023-03-04T01:16:27.615Z,2.28
2023-03-04T01:18:55.115Z,2.25
2023-03-04T01:21:22.894Z,2.47
2023-03-04T01:23:50.143Z,2.53
2023-03-04T01:26:17.728Z,2.83
2023-03-04T01:28:45.145Z,3.67
2023-03-04T01:31:12.628Z,2.35
2023-03-04T01:33:40.001Z,2.65
2023-03-04T01:36:07.491Z,2.65
2023-03-04T01:38:35.123Z,2.28
2023-03-04T01:41:02.721Z,2.25
2023-03-04T01:43:31.670Z,1.85
2023-03-04T01:45:59.774Z,2.22
2023-03-04T01:48:31.695Z,2.42
2023-03-04T01:51:03.026Z,2.22
2023-03-04T01:53:32.913Z,2.85
2023-03-04T01:56:29.523Z,2.13
2023-03-04T01:59:15.213Z,3.53
2023-03-04T02:01:50.873Z,2.83
2023-03-04T02:04:23.367Z,2.13
2023-03-04T02:06:52.310Z,2.40
2023-03-04T02:09:21.186Z,2.80
2023-03-04T02:11:50.853Z,2.83
2023-03-04T02:14:20.567Z,2.10
2023-03-04T02:16:49.326Z,2.13
2023-03-04T02:19:32.810Z,2.50
2023-03-04T02:22:00.134Z,2.38
2023-03-04T02:24:35.354Z,2.72
2023-03-04T02:27:03.960Z,2.53
2023-03-04T02:29:31.567Z,2.53
2023-03-04T02:31:59.152Z,2.42
2023-03-04T02:34:32.948Z,2.33
2023-03-04T02:37:02.506Z,1.90
2023-03-04T02:39:35.016Z,1.90
2023-03-04T02:42:04.773Z,3.08
2023-03-04T02:44:37.450Z,2.30
2023-03-04T02:47:07.336Z,1.70
2023-03-04T02:49:37.872Z,1.88
2023-03-04T02:52:20.997Z,1.70
2023-03-04T02:54:48.655Z,1.92
2023-03-04T02:57:17.516Z,2.08
2023-03-04T02:59:48.893Z,1.80
2023-03-04T03:02:20.455Z,1.90
2023-03-04T03:04:47.905Z,2.83
2023-03-04T03:07:18.781Z,1.77
2023-03-04T03:09:46.622Z,1.98
2023-03-04T03:12:14.372Z,1.92
2023-03-04T03:14:41.778Z,2.72
2023-03-04T03:17:11.818Z,2.33
2023-03-04T03:19:39.335Z,2.60
2023-03-04T03:22:08.510Z,3.08
2023-03-04T03:24:35.888Z,2.70
2023-03-04T03:27:03.225Z,3.42
2023-03-04T03:29:32.661Z,1.98
2023-03-04T03:32:00.186Z,2.17
2023-03-04T03:34:28.230Z,1.83
2023-03-04T03:36:55.697Z,2.03
2023-03-04T03:39:23.030Z,2.30
2023-03-04T03:41:51.428Z,2.78
2023-03-04T03:44:19.179Z,2.25
2023-03-04T03:46:47.260Z,1.95
2023-03-04T03:49:14.914Z,1.90
2023-03-04T03:51:42.256Z,2.20
2023-03-04T03:54:10.836Z,1.65
2023-03-04T03:56:38.141Z,1.77
2023-03-04T03:59:05.491Z,2.42
2023-03-04T04:01:33.615Z,1.85
2023-03-04T04:04:01.336Z,1.40
2023-03-04T04:06:28.626Z,1.73
2023-03-04T04:08:55.997Z,2.17
2023-03-04T04:11:23.233Z,2.00
2023-03-04T04:13:50.646Z,1.60
2023-03-04T04:16:18.103Z,1.48
2023-03-04T04:18:45.397Z,1.65
2023-03-04T04:21:12.836Z,1.65
2023-03-04T04:23:40.124Z,1.40
2023-03-04T04:26:07.490Z,2.80
2023-03-04T04:28:34.787Z,1.95
2023-03-04T04:31:02.336Z,1.85
2023-03-04T04:33:29.640Z,1.75
2023-03-04T04:35:57.181Z,1.67
2023-03-04T04:38:25.958Z,1.52
2023-03-04T04:40:53.288Z,2.20
2023-03-04T04:43:20.545Z,1.95
2023-03-04T04:45:47.858Z,1.70
2023-03-04T04:48:16.897Z,2.15
2023-03-04T04:50:44.212Z,2.78
2023-03-04T04:53:14.324Z,2.63
2023-03-04T04:55:41.645Z,2.47
2023-03-04T04:58:08.963Z,2.40
2023-03-04T05:00:36.374Z,3.13
2023-03-04T05:03:04.063Z,3.03
2023-03-04T05:05:31.493Z,2.33
2023-03-04T05:07:58.873Z,2.05
2023-03-04T05:10:26.501Z,2.50
2023-03-04T05:12:54.244Z,2.17
2023-03-04T05:15:23.797Z,2.03
2023-03-04T05:17:51.106Z,1.70
2023-03-04T05:20:18.710Z,1.55
2023-03-04T05:22:45.960Z,2.53
2023-03-04T05:25:13.320Z,1.90
2023-03-04T05:27:40.708Z,1.83
2023-03-04T05:30:08.956Z,3.13
2023-03-04T05:32:36.224Z,2.65
2023-03-04T05:35:06.115Z,3.72
2023-03-04T05:37:33.790Z,2.27
2023-03-04T05:40:02.410Z,2.28
2023-03-04T05:42:29.815Z,3.08
2023-03-04T05:44:57.940Z,2.45
2023-03-04T05:47:25.312Z,2.55
2023-03-04T05:49:52.965Z,2.35
2023-03-04T05:52:20.743Z,2.20
2023-03-04T05:54:48.501Z,2.25
2023-03-04T05:57:15.764Z,2.40
2023-03-04T05:59:43.104Z,2.25
2023-03-04T06:02:10.452Z,2.42
2023-03-04T06:04:37.883Z,2.80
2023-03-04T06:07:05.194Z,2.10
2023-03-04T06:09:33.450Z,2.15
2023-03-04T06:12:00.745Z,2.70
2023-03-04T06:14:28.051Z,1.98
2023-03-04T06:16:55.504Z,1.70
2023-03-04T06:19:23.057Z,1.70
2023-03-04T06:21:50.503Z,1.80
2023-03-04T06:24:18.000Z,2.05
2023-03-04T06:26:45.289Z,2.00
2023-03-04T06:29:13.718Z,2.15
2023-03-04T06:31:44.260Z,3.97
2023-03-04T06:34:11.943Z,1.83
2023-03-04T06:36:39.297Z,2.72
2023-03-04T06:39:07.775Z,2.35
2023-03-04T06:41:38.322Z,2.63
2023-03-04T06:44:06.040Z,2.58
2023-03-04T06:46:34.430Z,2.85
2023-03-04T06:49:03.346Z,2.33
2023-03-04T06:51:30.888Z,2.55
2023-03-04T06:53:58.229Z,2.47
2023-03-04T06:56:28.345Z,3.38
2023-03-04T06:58:55.624Z,2.72
2023-03-04T07:01:26.141Z,3.20
2023-03-04T07:03:55.224Z,2.50
2023-03-04T07:06:25.823Z,3.13
2023-03-04T07:08:55.827Z,3.25
2023-03-04T07:11:23.934Z,2.85
2023-03-04T07:13:52.076Z,3.63
2023-03-04T07:16:22.986Z,3.30
2023-03-04T07:18:50.726Z,3.00
2023-03-04T07:21:18.818Z,3.08
2023-03-04T07:23:46.490Z,2.72
2023-03-04T07:26:14.359Z,2.90
2023-03-04T07:28:43.327Z,3.85
2023-03-04T07:31:13.902Z,4.05
2023-03-04T07:33:41.312Z,4.00
2023-03-04T07:36:10.552Z,3.83
2023-03-04T07:38:40.993Z,4.97
2023-03-04T07:41:08.440Z,3.83
2023-03-04T07:43:35.618Z,3.00
2023-03-04T07:46:03.061Z,3.38
2023-03-04T07:48:31.279Z,3.28
2023-03-04T07:51:05.761Z,2.97
2023-03-04T07:53:35.064Z,3.05
2023-03-04T07:56:03.225Z,2.85
2023-03-04T07:58:31.308Z,2.55
2023-03-04T08:00:59.110Z,2.72
2023-03-04T08:03:26.384Z,2.72
2023-03-04T08:05:53.717Z,2.28
2023-03-04T08:08:21.539Z,2.60
2023-03-04T08:10:48.968Z,3.28
2023-03-04T08:13:16.191Z,2.90
2023-03-04T08:15:43.706Z,2.88
2023-03-04T08:18:11.342Z,3.22
2023-03-04T08:20:42.059Z,3.67
2023-03-04T08:25:42.246Z,3.15
2023-03-04T08:28:10.168Z,4.00
2023-03-04T08:30:37.646Z,3.38
2023-03-04T08:33:05.354Z,3.92
2023-03-04T08:35:33.872Z,4.95
2023-03-04T08:38:02.547Z,3.17
2023-03-04T08:40:31.246Z,3.92
2023-03-04T08:43:00.423Z,3.72
2023-03-04T08:45:29.263Z,4.00
2023-03-04T08:47:56.790Z,4.38
2023-03-04T08:50:24.716Z,4.45
2023-03-04T08:52:52.198Z,3.60
2023-03-04T08:55:20.573Z,4.28
2023-03-04T08:57:49.169Z,3.65
2023-03-04T09:00:17.325Z,3.40
2023-03-04T09:02:44.585Z,3.78
2023-03-04T09:05:12.620Z,3.58
2023-03-04T09:07:41.097Z,4.03
2023-03-04T09:10:09.233Z,2.35
2023-03-04T09:12:36.722Z,2.85
2023-03-04T09:15:11.379Z,1.58
2023-03-04T09:17:40.718Z,1.63
2023-03-04T09:20:10.358Z,1.42
2023-03-04T09:22:39.145Z,1.95
2023-03-04T09:25:12.723Z,1.30
2023-03-04T09:27:40.793Z,1.50
2023-03-04T09:30:09.264Z,2.08
2023-03-04T09:32:36.905Z,1.30
2023-03-04T09:35:05.625Z,1.52
2023-03-04T09:37:32.968Z,1.88
2023-03-04T09:40:00.253Z,2.55
2023-03-04T09:42:35.266Z,2.05
2023-03-04T09:45:05.560Z,3.30
2023-03-04T09:47:37.279Z,2.63
2023-03-04T09:50:08.912Z,2.90
2023-03-04T09:52:47.239Z,2.65
2023-03-04T09:55:14.440Z,2.75
2023-03-04T09:58:00.648Z,3.53
2023-03-04T10:00:39.287Z,2.60
2023-03-04T10:03:13.293Z,2.90
2023-03-04T10:05:52.862Z,3.75
2023-03-04T10:08:35.358Z,2.90
2023-03-04T10:11:06.724Z,2.60
2023-03-04T10:13:41.447Z,2.50
2023-03-04T10:16:15.765Z,2.72
2023-03-04T10:18:50.806Z,4.07
2023-03-04T10:21:32.469Z,2.80
2023-03-04T10:24:15.109Z,2.00
2023-03-04T10:26:48.690Z,2.75
2023-03-04T10:29:19.108Z,3.65
2023-03-04T10:31:46.776Z,3.33
2023-03-04T10:34:15.852Z,2.95
2023-03-04T10:37:01.139Z,3.25
2023-03-04T10:39:31.011Z,2.70
2023-03-04T10:42:07.513Z,2.97
2023-03-04T10:44:35.821Z,3.08
2023-03-04T10:47:05.406Z,2.97
2023-03-04T10:49:32.737Z,3.45
2023-03-04T10:52:23.580Z,2.75
2023-03-04T10:54:54.190Z,2.97
2023-03-04T10:57:36.115Z,2.17
2023-03-04T11:00:18.647Z,2.63
2023-03-04T11:02:47.413Z,3.03
2023-03-04T11:05:28.139Z,3.28
2023-03-04T11:10:37.294Z,2.45
2023-03-04T11:13:24.136Z,2.70
2023-03-04T11:16:05.560Z,2.83
2023-03-04T11:18:42.593Z,3.08
2023-03-04T11:21:27.434Z,2.55
2023-03-04T11:24:03.201Z,3.35
2023-03-04T11:26:42.776Z,2.80
2023-03-04T11:29:22.888Z,2.92
2023-03-04T11:32:25.306Z,2.30
2023-03-04T11:35:08.142Z,3.15
2023-03-04T11:37:55.494Z,2.50
2023-03-04T11:40:36.705Z,2.70
2023-03-04T11:43:26.779Z,2.53
2023-03-04T11:46:13.450Z,2.38
2023-03-04T11:48:50.478Z,2.90
2023-03-04T11:51:45.334Z,2.90
2023-03-04T11:54:43.567Z,2.80
2023-03-04T11:57:48.846Z,3.45
2023-03-04T12:00:20.962Z,3.22
2023-03-04T12:03:27.482Z,3.63
2023-03-04T12:06:23.477Z,3.55
2023-03-04T12:09:28.378Z,4.53
2023-03-04T12:12:20.714Z,1.83
2023-03-04T12:15:00.390Z,2.20
2023-03-04T12:17:33.746Z,2.65
2023-03-04T12:20:09.209Z,3.78
2023-03-04T12:22:52.344Z,2.95
2023-03-04T12:25:35.898Z,3.58
2023-03-04T12:28:09.198Z,3.35
2023-03-04T12:31:01.422Z,3.38
2023-03-04T12:33:55.393Z,3.03
2023-03-04T12:36:58.073Z,3.33
2023-03-04T12:39:46.167Z,3.38
2023-03-04T12:42:24.755Z,3.47
2023-03-04T12:45:22.198Z,2.83
2023-03-04T12:48:22.541Z,3.22
2023-03-04T12:51:11.286Z,3.60
2023-03-04T12:53:39.613Z,3.80
2023-03-04T12:56:15.917Z,4.03
2023-03-04T12:58:43.536Z,2.60
2023-03-04T13:01:23.081Z,3.50
2023-03-04T13:03:58.278Z,3.05
2023-03-04T13:06:37.780Z,3.47
2023-03-04T13:09:39.940Z,4.22
2023-03-04T13:12:21.604Z,3.08
2023-03-04T13:15:08.238Z,2.42
2023-03-04T13:17:43.074Z,3.42
2023-03-04T13:20:20.183Z,2.70
2023-03-04T13:23:01.203Z,2.58
2023-03-04T13:25:45.225Z,2.20
2023-03-04T13:28:16.219Z,2.90
2023-03-04T13:31:09.400Z,3.00
2023-03-04T13:33:36.897Z,2.33
2023-03-04T13:36:06.375Z,2.90
2023-03-04T13:38:38.836Z,2.67
2023-03-04T13:41:06.447Z,2.13
2023-03-04T13:43:45.840Z,1.60
2023-03-04T13:46:19.216Z,3.25
2023-03-04T13:48:52.643Z,1.70
2023-03-04T13:51:43.145Z,1.65
2023-03-04T13:54:27.632Z,2.10
2023-03-04T13:57:01.095Z,2.10
2023-03-04T13:59:42.100Z,2.47
2023-03-04T14:02:16.940Z,2.10
2023-03-04T14:04:46.720Z,2.67
2023-03-04T14:07:20.093Z,2.97
2023-03-04T14:10:05.119Z,3.35
2023-03-04T14:12:35.006Z,2.00
2023-03-04T14:15:22.592Z,2.43
2023-03-04T14:18:01.989Z,2.67
2023-03-04T14:20:32.197Z,2.33
2023-03-04T14:23:02.197Z,2.40
2023-03-04T14:25:36.824Z,3.00
2023-03-04T14:28:20.790Z,2.28
2023-03-04T14:30:58.079Z,3.28
2023-03-04T14:33:28.970Z,2.33
2023-03-04T14:36:02.818Z,2.92
2023-03-04T14:38:38.122Z,3.55
2023-03-04T14:41:16.346Z,2.50
2023-03-04T14:44:02.017Z,3.58
2023-03-04T14:46:34.804Z,2.70
2023-03-04T14:49:02.629Z,3.15
2023-03-04T14:51:37.990Z,3.38
2023-03-04T14:54:05.730Z,3.33
2023-03-04T14:56:35.823Z,2.80
2023-03-04T14:59:03.236Z,2.58
2023-03-04T15:01:34.496Z,2.83
2023-03-04T15:04:13.912Z,2.35
2023-03-04T15:06:51.604Z,2.78
2023-03-04T15:09:27.634Z,1.95
2023-03-04T15:12:08.456Z,2.05
2023-03-04T15:17:38.368Z,2.05
2023-03-04T15:20:08.883Z,3.35
2023-03-04T15:22:57.428Z,2.55
2023-03-04T15:25:24.983Z,2.30
2023-03-04T15:27:54.311Z,3.08
2023-03-04T15:30:29.236Z,3.10
2023-03-04T15:32:57.887Z,2.45
2023-03-04T15:35:31.886Z,3.28
2023-03-04T15:38:00.276Z,2.63
2023-03-04T15:40:41.982Z,2.45
2023-03-04T15:43:19.269Z,3.42
2023-03-04T15:45:48.323Z,2.40
2023-03-04T15:48:17.284Z,1.98
2023-03-04T15:50:56.017Z,2.30
2023-03-04T15:53:37.855Z,2.00
2023-03-04T15:56:08.620Z,1.80
2023-03-04T16:01:04.277Z,2.90
2023-03-04T16:03:31.597Z,2.58
2023-03-04T16:05:59.387Z,2.65
2023-03-04T16:08:26.912Z,2.40
2023-03-04T16:10:54.874Z,3.33
2023-03-04T16:13:23.989Z,2.65
2023-03-04T16:15:52.004Z,3.10
2023-03-04T16:18:19.825Z,2.85
2023-03-04T16:20:49.409Z,3.55
2023-03-04T16:23:23.685Z,2.60
2023-03-04T16:25:55.458Z,3.15
2023-03-04T16:28:23.248Z,2.85
2023-03-04T16:30:50.572Z,2.00
2023-03-04T16:33:18.098Z,2.88
2023-03-04T16:35:46.512Z,2.92
2023-03-04T16:38:29.857Z,2.72
2023-03-04T16:40:59.653Z,2.53
2023-03-04T16:43:27.248Z,2.73
2023-03-04T16:45:55.057Z,2.75
2023-03-04T16:48:22.564Z,3.13
2023-03-04T16:50:50.122Z,2.53
2023-03-04T16:53:35.069Z,2.15
2023-03-04T16:56:12.078Z,1.95
2023-03-04T16:58:40.393Z,2.88
2023-03-04T17:01:16.561Z,2.88
2023-03-04T17:03:43.944Z,3.35
2023-03-04T17:06:12.076Z,2.75
2023-03-04T17:08:39.526Z,2.67
2023-03-04T17:11:07.275Z,1.80
2023-03-04T17:13:34.773Z,2.47
2023-03-04T17:16:02.989Z,1.98
2023-03-04T17:18:33.279Z,2.20
2023-03-04T17:21:09.022Z,2.13
2023-03-04T17:23:36.576Z,2.25
2023-03-04T17:26:04.664Z,1.77
2023-03-04T17:28:32.474Z,2.55
2023-03-04T17:30:59.819Z,1.85
2023-03-04T17:33:27.500Z,2.25
2023-03-04T17:35:56.928Z,2.58
2023-03-04T17:38:24.222Z,2.20
2023-03-04T17:40:51.643Z,2.90
2023-03-04T17:43:19.058Z,3.53
2023-03-04T17:45:46.317Z,4.35
2023-03-04T17:48:16.475Z,3.78
2023-03-04T17:50:53.670Z,3.22
2023-03-04T17:53:21.889Z,2.67
2023-03-04T17:55:54.952Z,2.58
2023-03-04T17:58:22.980Z,2.55
2023-03-04T18:00:52.967Z,3.33
2023-03-04T18:03:20.653Z,2.55
2023-03-04T18:05:48.102Z,2.25
2023-03-04T18:08:15.538Z,2.33
2023-03-04T18:10:42.900Z,2.55
2023-03-04T18:13:10.328Z,2.10
2023-03-04T18:15:37.706Z,1.98
2023-03-04T18:18:05.018Z,2.70
2023-03-04T18:20:32.687Z,1.80
2023-03-04T18:23:00.901Z,1.92
2023-03-04T18:25:29.568Z,1.70
2023-03-04T18:27:58.992Z,2.10
2023-03-04T18:30:27.756Z,2.47
2023-03-04T18:32:56.493Z,2.13
2023-03-04T18:35:23.861Z,2.72
2023-03-04T18:37:51.490Z,2.00
2023-03-04T18:40:19.023Z,1.95
2023-03-04T18:42:47.047Z,2.55
2023-03-04T18:45:15.889Z,2.58
2023-03-04T18:47:47.285Z,1.63
2023-03-04T18:50:14.643Z,2.28
2023-03-04T18:52:45.153Z,1.75
2023-03-04T18:55:13.146Z,2.17
2023-03-04T18:57:45.897Z,1.48
2023-03-04T19:00:18.667Z,1.80
2023-03-04T19:03:01.652Z,2.03
2023-03-04T19:05:33.397Z,1.88
2023-03-04T19:08:01.224Z,2.20
2023-03-04T19:10:31.585Z,1.92
2023-03-04T19:12:59.704Z,2.05
2023-03-04T19:15:27.743Z,2.17
2023-03-04T19:17:55.065Z,1.85
2023-03-04T19:20:22.410Z,1.90
2023-03-04T19:22:50.885Z,2.35
2023-03-04T19:25:18.247Z,2.22
2023-03-04T19:27:45.612Z,1.60
2023-03-04T19:30:13.137Z,1.92
2023-03-04T19:32:40.483Z,1.52
2023-03-04T19:35:07.999Z,2.00
2023-03-04T19:37:35.275Z,1.90
2023-03-04T19:40:02.657Z,1.80
2023-03-04T19:42:30.023Z,2.13
2023-03-04T19:44:57.368Z,2.03
2023-03-04T19:47:24.726Z,2.97
2023-03-04T19:49:52.112Z,2.38
2023-03-04T19:52:19.913Z,2.13
2023-03-04T19:54:47.193Z,3.00
2023-03-04T19:57:14.448Z,1.83
2023-03-04T19:59:41.872Z,2.20
2023-03-04T20:02:09.104Z,2.70
2023-03-04T20:04:36.326Z,1.90
2023-03-04T20:07:04.651Z,1.70
2023-03-04T20:09:32.209Z,2.97
2023-03-04T20:11:59.789Z,1.98
2023-03-04T20:14:27.942Z,2.30
2023-03-04T20:17:00.773Z,3.30
2023-03-04T20:19:32.299Z,2.50
2023-03-04T20:22:00.323Z,2.15
2023-03-04T20:24:27.987Z,1.42
2023-03-04T20:26:55.811Z,1.90
2023-03-04T20:29:23.349Z,2.00
2023-03-04T20:31:51.066Z,1.98
2023-03-04T20:34:18.664Z,1.70
2023-03-04T20:36:45.874Z,1.73
2023-03-04T20:39:27.673Z,1.55
2023-03-04T20:41:59.236Z,1.90
2023-03-04T20:44:27.997Z,1.40
2023-03-04T20:46:55.642Z,1.63
2023-03-04T20:49:26.692Z,1.60
2023-03-04T20:52:08.365Z,1.45
2023-03-04T20:54:40.609Z,1.67
2023-03-04T20:57:11.657Z,1.70
2023-03-04T20:59:40.236Z,2.00
2023-03-04T21:02:11.490Z,2.30
2023-03-04T21:04:38.794Z,2.40
2023-03-04T21:07:06.164Z,2.90
2023-03-04T21:09:33.469Z,5.00
2023-03-04T21:12:01.238Z,4.90
2023-03-04T21:14:31.190Z,8.25
2023-03-04T21:17:02.202Z,15.25
2023-03-04T21:19:39.907Z,16.15
2023-03-04T21:22:07.607Z,11.88
2023-03-04T21:24:39.678Z,10.82
2023-03-04T21:27:08.693Z,8.50
2023-03-04T21:29:36.380Z,7.90
2023-03-04T21:32:23.870Z,6.93
2023-03-04T21:34:53.896Z,5.03
2023-03-04T21:37:22.802Z,6.30
2023-03-04T21:39:50.132Z,3.83
2023-03-04T21:42:17.661Z,4.65
2023-03-04T21:44:49.504Z,5.15
2023-03-04T21:47:17.499Z,3.65
2023-03-04T21:49:44.996Z,3.58
2023-03-04T21:52:13.127Z,3.28
2023-03-04T21:54:41.069Z,3.72
2023-03-04T21:57:08.389Z,3.50
2023-03-04T21:59:35.670Z,2.53
2023-03-04T22:02:03.036Z,2.50
2023-03-04T22:04:30.495Z,2.80
2023-03-04T22:06:57.748Z,2.00
2023-03-04T22:09:25.341Z,2.33
2023-03-04T22:11:52.704Z,2.05
2023-03-04T22:14:20.060Z,2.58
2023-03-04T22:16:55.460Z,2.10
2023-03-04T22:19:25.793Z,2.35
2023-03-04T22:21:53.576Z,1.77
2023-03-04T22:24:21.359Z,1.67
2023-03-04T22:26:49.069Z,1.90
2023-03-04T22:29:16.488Z,2.53
2023-03-04T22:31:45.337Z,4.10
2023-03-04T22:34:15.244Z,3.92
2023-03-04T22:36:44.359Z,4.10
2023-03-04T22:39:14.560Z,3.22
2023-03-04T22:41:42.081Z,3.53
2023-03-04T22:44:09.851Z,3.67
2023-03-04T22:46:39.238Z,3.30
2023-03-04T22:49:11.865Z,3.15
2023-03-04T22:51:44.510Z,3.30
2023-03-04T22:54:14.648Z,3.08
2023-03-04T22:56:41.928Z,3.00
2023-03-04T22:59:09.467Z,3.10
2023-03-04T23:01:37.104Z,2.72
2023-03-04T23:04:04.726Z,2.60
2023-03-04T23:06:32.073Z,3.05
2023-03-04T23:08:59.993Z,2.92
2023-03-04T23:11:30.583Z,2.38
2023-03-04T23:14:02.188Z,1.90
2023-03-04T23:16:30.052Z,1.88
2023-03-04T23:18:59.378Z,1.98
2023-03-04T23:21:28.605Z,1.80
2023-03-04T23:23:56.081Z,2.03
2023-03-04T23:26:32.370Z,3.10
2023-03-04T23:29:01.922Z,1.38
2023-03-04T23:31:30.732Z,1.55
2023-03-04T23:33:59.456Z,1.50
2023-03-04T23:36:32.990Z,1.92
2023-03-04T23:39:01.711Z,1.30
2023-03-04T23:41:31.304Z,1.50
2023-03-04T23:43:59.568Z,1.45
2023-03-04T23:46:28.124Z,1.35
2023-03-04T23:48:55.896Z,1.42
2023-03-04T23:51:26.296Z,1.38
2023-03-04T23:53:54.427Z,1.77
2023-03-04T23:56:25.322Z,1.60
2023-03-04T23:58:52.769Z,1.30
